Time;durP1;ratioP1;P1;durP2;ratioP2;P2;SDS_P1;SDS_P2;PMS_P1;PMS_P2;Temp;Humidity;BMP_temperature;BMP_pressure;BME280_temperature;BME280_humidity;BME280_pressure;Samples;Min_cycle;Max_cycle;Signal;HPM_P1;HPM_P2
2023/10/15 00:00:13;;;;;;;;;;;;;;;5.63;100.00;101667.09;5116315;28;19916;-51
2023/10/15 00:02:41;;;;;;;;;;;;;;;5.66;100.00;101674.94;5116132;28;19965;-51
2023/10/15 00:05:08;;;;;;;;;;;;;;;5.70;100.00;101678.59;5115551;28;19911;-50
2023/10/15 00:07:33;;;;;;;;;;;;;;;5.71;100.00;101695.72;5115975;28;19911;-51
2023/10/15 00:10:00;;;;;;;;;;;;;;;5.73;100.00;101691.56;5115995;28;19923;-48
2023/10/15 00:12:25;;;;;;;;;;;;;;;5.74;100.00;101701.00;5096771;28;19919;-50
2023/10/15 00:14:51;;;;;;;;;;;;;;;5.77;100.00;101690.94;5116074;28;19912;-51
2023/10/15 00:17:16;;;;;;;;;;;;;;;5.82;100.00;101704.03;5115614;28;19912;-50
2023/10/15 00:19:41;;;;;;;;;;;;;;;5.86;100.00;101706.91;5115203;28;19951;-50
2023/10/15 00:22:07;;;;;;;;;;;;;;;5.91;100.00;101702.97;5116098;28;19912;-50
2023/10/15 00:24:32;;;;;;;;;;;;;;;5.94;100.00;101695.47;5115809;28;20309;-51
2023/10/15 00:27:00;;;;;;;;;;;;;;;5.99;100.00;101700.00;5115302;28;19911;-50
2023/10/15 00:29:26;;;;;;;;;;;;;;;6.03;100.00;101695.19;5115488;28;20274;-51
2023/10/15 00:31:51;;;;;;;;;;;;;;;6.06;100.00;101689.38;5115877;28;20385;-51
2023/10/15 00:34:17;;;;;;;;;;;;;;;6.10;100.00;101688.75;5114685;28;19911;-51
2023/10/15 00:36:42;;;;;;;;;;;;;;;6.13;100.00;101696.63;5115657;28;19907;-51
2023/10/15 00:39:10;;;;;;;;;;;;;;;6.15;100.00;101687.38;5115608;28;19912;-51
2023/10/15 00:41:35;;;;;;;;;;;;;;;6.17;100.00;101695.13;5114654;28;19970;-50
2023/10/15 00:44:00;;;;;;;;;;;;;;;6.17;100.00;101690.91;5115429;28;20366;-51
2023/10/15 00:46:32;;;;;;;;;;;;;;;6.18;100.00;101687.53;5115363;28;20421;-51
2023/10/15 00:49:09;;;;;;;;;;;;;;;6.17;100.00;101674.66;5113871;28;20271;-50
2023/10/15 00:51:40;;;;;;;;;;;;;;;6.17;100.00;101667.88;5115183;28;19915;-51
2023/10/15 00:54:10;;;;;;;;;;;;;;;6.16;100.00;101658.44;5114690;28;19907;-49
2023/10/15 00:56:36;;;;;;;;;;;;;;;6.20;100.00;101659.50;5115333;28;19912;-51
2023/10/15 01:01:38;;;;;;;;;;;;;;;6.24;100.00;101658.88;5114112;28;20002;-49
2023/10/15 01:04:06;;;;;;;;;;;;;;;6.23;100.00;101665.66;5115148;28;19917;-50
2023/10/15 01:09:08;;;;;;;;;;;;;;;6.27;100.00;101656.50;5114198;28;19916;-50
2023/10/15 01:11:35;;;;;;;;;;;;;;;6.30;100.00;101653.25;5114723;28;19912;-51
2023/10/15 01:14:00;;;;;;;;;;;;;;;6.33;100.00;101658.56;5115067;28;19915;-51
2023/10/15 01:16:28;;;;;;;;;;;;;;;6.35;100.00;101656.97;5113756;28;19918;-50
2023/10/15 01:19:31;;;;;;;;;;;;;;;6.33;100.00;101661.13;5115067;28;19911;-51
2023/10/15 01:24:19;;;;;;;;;;;;;;;6.36;100.00;101681.78;5114584;28;20247;-51
2023/10/15 01:26:59;;;;;;;;;;;;;;;6.36;100.00;101669.84;5114833;28;19931;-51
2023/10/15 01:29:24;;;;;;;;;;;;;;;6.35;100.00;101663.00;5113774;28;19919;-50
2023/10/15 01:31:56;;;;;;;;;;;;;;;6.33;100.00;101664.56;5114754;28;19911;-51
2023/10/15 01:34:21;;;;;;;;;;;;;;;6.33;100.00;101672.25;5114284;28;19934;-51
2023/10/15 01:36:51;;;;;;;;;;;;;;;6.34;100.00;101673.09;5113570;28;20326;-51
2023/10/15 01:39:21;;;;;;;;;;;;;;;6.37;100.00;101702.34;5114158;28;19912;-51
2023/10/15 01:41:50;;;;;;;;;;;;;;;6.39;100.00;101680.28;5114650;28;19928;-51
2023/10/15 01:44:18;;;;;;;;;;;;;;;6.39;100.00;101675.19;5113405;28;19912;-50
2023/10/15 01:47:07;;;;;;;;;;;;;;;6.43;100.00;101691.63;5114507;28;20002;-50
2023/10/15 01:49:33;;;;;;;;;;;;;;;6.43;100.00;101705.28;5113909;28;20385;-50
2023/10/15 01:52:06;;;;;;;;;;;;;;;6.39;100.00;101664.03;5113306;28;20279;-51
2023/10/15 01:54:35;;;;;;;;;;;;;;;6.32;100.00;101636.31;5114047;28;19923;-51
2023/10/15 01:57:06;;;;;;;;;;;;;;;6.27;100.00;101641.16;5113513;28;19916;-51
2023/10/15 01:59:41;;;;;;;;;;;;;;;6.22;100.00;101643.44;5113599;28;19924;-50
2023/10/15 02:02:06;;;;;;;;;;;;;;;6.23;100.00;101650.31;5114050;28;19911;-51
2023/10/15 02:04:41;;;;;;;;;;;;;;;6.22;100.00;101651.13;5112866;28;20017;-50
2023/10/15 02:07:07;;;;;;;;;;;;;;;6.21;100.00;101653.56;5114239;28;19912;-51
2023/10/15 02:09:38;;;;;;;;;;;;;;;6.16;100.00;101639.59;5113820;28;19911;-50
2023/10/15 02:12:04;;;;;;;;;;;;;;;6.08;100.00;101636.59;5113273;28;19918;-50
2023/10/15 02:14:30;;;;;;;;;;;;;;;5.99;100.00;101657.41;5113724;28;20317;-51
2023/10/15 02:16:58;;;;;;;;;;;;;;;5.86;100.00;101658.28;5114028;28;20506;-51
2023/10/15 02:21:58;;;;;;;;;;;;;;;5.66;100.00;101651.06;5113869;28;19912;-51
2023/10/15 02:24:23;;;;;;;;;;;;;;;5.58;100.00;101646.34;5113520;28;19911;-51
2023/10/15 02:26:49;;;;;;;;;;;;;;;5.54;100.00;101651.16;5113027;28;20313;-50
2023/10/15 02:29:27;;;;;;;;;;;;;;;5.49;100.00;101650.88;5113352;28;19912;-51
2023/10/15 02:31:52;;;;;;;;;;;;;;;5.44;100.00;101649.69;5113969;28;19918;-50
2023/10/15 02:34:24;;;;;;;;;;;;;;;5.42;100.00;101654.72;5112388;28;19907;-51
2023/10/15 02:36:49;;;;;;;;;;;;;;;5.41;100.00;101652.03;5113651;28;20358;-51
2023/10/15 02:39:14;;;;;;;;;;;;;;;5.42;100.00;101644.50;5112587;28;19908;-51
2023/10/15 02:41:46;;;;;;;;;;;;;;;5.43;100.00;101637.69;5113593;28;19916;-50
2023/10/15 02:44:14;;;;;;;;;;;;;;;5.44;100.00;101649.69;5113633;28;19918;-50
2023/10/15 02:46:47;;;;;;;;;;;;;;;5.43;100.00;101706.72;5113263;28;19918;-50
2023/10/15 02:49:15;;;;;;;;;;;;;;;5.43;100.00;101715.25;5113409;28;19988;-50
2023/10/15 02:51:41;;;;;;;;;;;;;;;5.47;100.00;101729.13;5113436;28;20259;-49
2023/10/15 02:54:18;;;;;;;;;;;;;;;5.54;100.00;101718.53;5112769;28;20048;-50
2023/10/15 02:56:45;;;;;;;;;;;;;;;5.56;100.00;101716.06;5113519;28;19953;-50
2023/10/15 02:59:10;;;;;;;;;;;;;;;5.54;100.00;101712.50;5113410;28;19922;-51
2023/10/15 03:01:35;;;;;;;;;;;;;;;5.51;100.00;101705.53;5112545;28;19911;-50
2023/10/15 03:04:07;;;;;;;;;;;;;;;5.50;100.00;101711.47;5113361;28;19938;-50
2023/10/15 03:06:34;;;;;;;;;;;;;;;5.50;100.00;101711.47;5113219;28;19935;-50
2023/10/15 03:09:00;;;;;;;;;;;;;;;5.48;100.00;101707.91;5112447;28;19912;-51
2023/10/15 03:11:31;;;;;;;;;;;;;;;5.45;100.00;101712.84;5114788;28;19919;-51
2023/10/15 03:13:56;;;;;;;;;;;;;;;5.44;100.00;101706.81;5117686;28;19973;-50
2023/10/15 03:16:22;;;;;;;;;;;;;;;5.44;100.00;101718.72;5116120;28;20363;-50
2023/10/15 03:18:48;;;;;;;;;;;;;;;5.46;100.00;101727.38;5117284;28;19911;-51
2023/10/15 03:21:16;;;;;;;;;;;;;;;5.45;100.00;101717.94;5116970;28;20301;-51
2023/10/15 03:23:43;;;;;;;;;;;;;;;5.42;100.00;101715.19;5116267;28;19998;-50
2023/10/15 03:26:10;;;;;;;;;;;;;;;5.43;100.00;101714.41;5117303;28;19914;-50
2023/10/15 03:28:42;;;;;;;;;;;;;;;5.41;100.00;101715.94;5116131;28;19912;-50
2023/10/15 03:31:09;;;;;;;;;;;;;;;5.38;100.00;101706.41;5117066;28;19938;-50
2023/10/15 03:33:35;;;;;;;;;;;;;;;5.38;100.00;101705.53;5116686;28;19911;-50
2023/10/15 03:36:03;;;;;;;;;;;;;;;5.35;100.00;101690.03;5116057;28;19923;-51
2023/10/15 03:38:34;;;;;;;;;;;;;;;5.34;100.00;101694.22;5116495;28;20283;-50
2023/10/15 03:41:39;;;;;;;;;;;;;;;5.33;100.00;101720.56;5116910;28;19911;-51
2023/10/15 03:43:51;;;;;;;;;;;;;;;5.37;100.00;101729.34;5112670;28;19976;-50
2023/10/15 03:46:19;;;;;;;;;;;;;;;5.38;100.00;101728.56;5116412;28;20376;-51
2023/10/15 03:48:47;;;;;;;;;;;;;;;5.39;100.00;101715.00;5116641;28;19977;-51
2023/10/15 03:51:15;;;;;;;;;;;;;;;5.39;100.00;101725.22;5115742;28;19915;-51
2023/10/15 03:53:41;;;;;;;;;;;;;;;5.38;100.00;101726.88;5116723;28;19916;-49
2023/10/15 03:56:07;;;;;;;;;;;;;;;5.37;100.00;101734.44;5116506;28;19912;-50
2023/10/15 03:58:32;;;;;;;;;;;;;;;5.36;100.00;101727.56;5115217;28;19922;-50
2023/10/15 04:01:12;;;;;;;;;;;;;;;5.37;100.00;101727.69;5116204;28;19949;-51
2023/10/15 04:03:41;;;;;;;;;;;;;;;5.40;100.00;101737.22;5115790;28;19957;-48
2023/10/15 04:06:07;;;;;;;;;;;;;;;5.42;100.00;101730.50;5116671;28;19912;-51
2023/10/15 04:08:32;;;;;;;;;;;;;;;5.43;100.00;101719.50;5116140;28;19919;-51
2023/10/15 04:10:58;;;;;;;;;;;;;;;5.44;100.00;101718.72;5115570;28;19911;-50
2023/10/15 04:13:26;;;;;;;;;;;;;;;5.45;100.00;101728.16;5115814;28;19911;-51
2023/10/15 04:15:52;;;;;;;;;;;;;;;5.47;100.00;101725.72;5116122;28;19954;-51
2023/10/15 04:18:17;;;;;;;;;;;;;;;5.51;100.00;101727.66;5115221;28;19943;-48
2023/10/15 04:20:42;;;;;;;;;;;;;;;5.51;100.00;101731.09;5115932;28;19969;-51
2023/10/15 04:23:12;;;;;;;;;;;;;;;5.52;100.00;101726.88;5114824;28;19912;-51
2023/10/15 04:25:37;;;;;;;;;;;;;;;5.51;100.00;101732.78;5115085;28;19965;-50
2023/10/15 04:28:10;;;;;;;;;;;;;;;5.48;100.00;101730.91;5115812;28;19912;-50
2023/10/15 04:30:38;;;;;;;;;;;;;;;5.46;100.00;101729.03;5115957;28;19950;-48
2023/10/15 04:33:09;;;;;;;;;;;;;;;5.44;100.00;101716.16;5115228;28;19912;-50
2023/10/15 04:35:37;;;;;;;;;;;;;;;5.43;100.00;101699.06;5115455;28;20433;-50
2023/10/15 04:38:06;;;;;;;;;;;;;;;5.42;100.00;101716.06;5115712;28;19912;-50
2023/10/15 04:40:39;;;;;;;;;;;;;;;5.40;100.00;101703.97;5114591;28;19916;-50
2023/10/15 04:43:04;;;;;;;;;;;;;;;5.38;100.00;101723.44;5115474;28;19923;-50
2023/10/15 04:48:01;;;;;;;;;;;;;;;5.41;100.00;101719.41;5114844;28;19908;-48
2023/10/15 04:50:29;;;;;;;;;;;;;;;5.44;100.00;101708.50;5115123;28;19911;-51
2023/10/15 04:53:02;;;;;;;;;;;;;;;5.49;100.00;101708.78;5114757;28;19920;-50
2023/10/15 04:55:27;;;;;;;;;;;;;;;5.50;100.00;101696.13;5115130;28;19961;-51
2023/10/15 04:57:52;;;;;;;;;;;;;;;5.50;100.00;101675.66;5115321;28;19912;-51
2023/10/15 05:00:25;;;;;;;;;;;;;;;5.50;100.00;101675.66;5114397;28;19913;-50
2023/10/15 05:02:52;;;;;;;;;;;;;;;5.48;100.00;101687.44;5115333;28;20028;-51
2023/10/15 05:05:17;;;;;;;;;;;;;;;5.46;100.00;101688.13;5114961;28;19912;-51
2023/10/15 05:07:43;;;;;;;;;;;;;;;5.43;100.00;101688.81;5114181;28;19911;-50
2023/10/15 05:10:08;;;;;;;;;;;;;;;5.40;100.00;101698.88;5115235;28;19915;-50
2023/10/15 05:12:34;;;;;;;;;;;;;;;5.33;100.00;101701.81;5114611;28;19911;-50
2023/10/15 05:14:59;;;;;;;;;;;;;;;5.23;100.00;101703.78;5114261;28;19990;-51
2023/10/15 05:17:24;;;;;;;;;;;;;;;5.17;100.00;101703.38;5114520;28;19912;-49
2023/10/15 05:19:53;;;;;;;;;;;;;;;5.13;100.00;101708.19;5114684;28;19919;-50
2023/10/15 05:22:19;;;;;;;;;;;;;;;5.10;100.00;101704.63;5113575;28;19912;-49
2023/10/15 05:24:44;;;;;;;;;;;;;;;5.14;100.00;101713.41;5114584;28;20309;-51
2023/10/15 05:27:12;;;;;;;;;;;;;;;5.18;100.00;101728.13;5114919;28;19918;-49
2023/10/15 05:29:37;;;;;;;;;;;;;;;5.23;100.00;101744.66;5114122;28;19912;-50
2023/10/15 05:32:02;;;;;;;;;;;;;;;5.30;100.00;101737.41;5114668;28;19919;-50
2023/10/15 05:34:28;;;;;;;;;;;;;;;5.34;100.00;101742.78;5113965;28;19912;-49
2023/10/15 05:36:53;;;;;;;;;;;;;;;5.39;100.00;101753.34;5113658;28;20010;-50
2023/10/15 05:39:18;;;;;;;;;;;;;;;5.42;100.00;101758.63;5114324;28;19912;-51
2023/10/15 05:41:44;;;;;;;;;;;;;;;5.45;100.00;101748.63;5114542;28;19912;-51
2023/10/15 05:44:09;;;;;;;;;;;;;;;5.45;100.00;101748.63;5113632;28;20416;-51
2023/10/15 05:46:34;;;;;;;;;;;;;;;5.46;100.00;101758.03;5114279;28;19998;-50
2023/10/15 05:48:59;;;;;;;;;;;;;;;5.50;100.00;101762.59;5113740;28;20321;-50
2023/10/15 05:51:25;;;;;;;;;;;;;;;5.51;100.00;101737.91;5113224;28;19915;-50
2023/10/15 05:53:50;;;;;;;;;;;;;;;5.48;100.00;101738.59;5114142;28;19911;-51
2023/10/15 05:56:16;;;;;;;;;;;;;;;5.43;100.00;101735.72;5113162;28;19911;-50
2023/10/15 05:58:41;;;;;;;;;;;;;;;5.41;100.00;101746.63;5114073;28;20002;-50
2023/10/15 06:01:06;;;;;;;;;;;;;;;5.36;100.00;101754.03;5113947;28;19962;-51
2023/10/15 06:03:32;;;;;;;;;;;;;;;5.31;100.00;101759.59;5112944;28;20411;-50
2023/10/15 06:05:57;;;;;;;;;;;;;;;5.26;100.00;101757.63;5113864;28;19912;-50
2023/10/15 06:08:22;;;;;;;;;;;;;;;5.24;100.00;101763.44;5113599;28;19912;-50
2023/10/15 06:10:48;;;;;;;;;;;;;;;5.22;100.00;101765.88;5112932;28;19974;-50
2023/10/15 06:13:13;;;;;;;;;;;;;;;5.22;100.00;101778.66;5113750;28;19911;-50
2023/10/15 06:15:38;;;;;;;;;;;;;;;5.22;100.00;101770.13;5114087;28;19912;-51
2023/10/15 06:18:04;;;;;;;;;;;;;;;5.23;100.00;101777.88;5113220;28;20016;-50
2023/10/15 06:20:29;;;;;;;;;;;;;;;5.23;100.00;101783.00;5113579;28;19911;-50
2023/10/15 06:22:57;;;;;;;;;;;;;;;5.23;100.00;101780.44;5113707;28;19922;-49
2023/10/15 06:25:23;;;;;;;;;;;;;;;5.24;100.00;101777.13;5112632;28;20244;-50
2023/10/15 06:27:49;;;;;;;;;;;;;;;5.27;100.00;101769.63;5113703;28;20366;-51
2023/10/15 06:30:16;;;;;;;;;;;;;;;5.27;100.00;101776.44;5113449;28;19998;-51
2023/10/15 06:32:42;;;;;;;;;;;;;;;5.28;100.00;101773.09;5112977;28;19915;-50
2023/10/15 06:35:07;;;;;;;;;;;;;;;5.28;100.00;101771.41;5113704;28;19938;-51
2023/10/15 06:37:33;;;;;;;;;;;;;;;5.30;100.00;101778.31;5113119;28;19964;-50
2023/10/15 06:39:58;;;;;;;;;;;;;;;5.26;100.00;101788.31;5113030;28;19920;-51
2023/10/15 06:42:24;;;;;;;;;;;;;;;5.25;100.00;101788.22;5113342;28;20000;-50
2023/10/15 06:44:50;;;;;;;;;;;;;;;5.21;100.00;101782.00;5113629;28;19994;-48
2023/10/15 06:47:17;;;;;;;;;;;;;;;5.18;100.00;101789.47;5115939;28;20002;-50
2023/10/15 06:49:43;;;;;;;;;;;;;;;5.16;100.00;101791.03;5117768;28;19915;-51
2023/10/15 06:52:08;;;;;;;;;;;;;;;5.14;100.00;101794.25;5118238;28;20231;-49
2023/10/15 06:54:34;;;;;;;;;;;;;;;5.11;100.00;101792.38;5116714;28;19952;-51
2023/10/15 06:56:59;;;;;;;;;;;;;;;5.11;100.00;101792.38;5117688;28;19912;-51
2023/10/15 06:59:24;;;;;;;;;;;;;;;5.12;100.00;101789.06;5116410;28;20034;-50
2023/10/15 07:01:50;;;;;;;;;;;;;;;5.17;100.00;101807.28;5117413;28;19923;-51
2023/10/15 07:04:15;;;;;;;;;;;;;;;5.21;100.00;101814.34;5117434;28;20256;-50
2023/10/15 07:06:40;;;;;;;;;;;;;;;5.25;100.00;101811.22;5116612;28;19919;-50
2023/10/15 07:09:06;;;;;;;;;;;;;;;5.30;100.00;101819.19;5117534;28;19920;-51
2023/10/15 07:11:31;;;;;;;;;;;;;;;5.33;100.00;101820.25;5117166;28;20040;-50
2023/10/15 07:13:56;;;;;;;;;;;;;;;5.40;100.00;101824.13;5116583;28;20287;-49
2023/10/15 07:16:22;;;;;;;;;;;;;;;5.45;100.00;101820.22;5116921;28;19938;-51
2023/10/15 07:18:47;;;;;;;;;;;;;;;5.48;100.00;101825.53;5117282;28;19950;-50
2023/10/15 07:21:13;;;;;;;;;;;;;;;5.53;100.00;101839.50;5115901;28;20422;-51
2023/10/15 07:23:38;;;;;;;;;;;;;;;5.60;100.00;101830.53;5117263;28;19918;-50
2023/10/15 07:26:03;;;;;;;;;;;;;;;5.70;100.00;101832.91;5117329;28;19937;-51
2023/10/15 07:28:28;;;;;;;;;;;;;;;5.81;100.00;101840.41;5116019;28;20339;-50
2023/10/15 07:30:53;;;;;;;;;;;;;;;5.89;100.00;101840.13;5117025;28;19938;-50
2023/10/15 07:33:19;;;;;;;;;;;;;;;6.00;100.00;101847.63;5116726;28;19990;-51
2023/10/15 07:35:46;;;;;;;;;;;;;;;6.10;100.00;101858.56;5116000;28;19911;-51
2023/10/15 07:38:12;;;;;;;;;;;;;;;6.17;100.00;101857.28;5116758;28;19938;-50
2023/10/15 07:40:37;;;;;;;;;;;;;;;6.24;100.00;101859.44;5116938;28;19968;-50
2023/10/15 07:43:03;;;;;;;;;;;;;;;6.30;100.00;101852.94;5115957;28;20372;-50
2023/10/15 07:45:29;;;;;;;;;;;;;;;6.31;100.00;101863.25;5116371;28;19912;-50
2023/10/15 07:47:55;;;;;;;;;;;;;;;6.38;100.00;101856.88;5116641;28;19912;-50
2023/10/15 07:50:23;;;;;;;;;;;;;;;6.51;100.00;101855.97;5115356;28;19918;-51
2023/10/15 07:52:49;;;;;;;;;;;;;;;6.64;100.00;101865.31;5116850;28;19912;-51
2023/10/15 07:55:14;;;;;;;;;;;;;;;6.75;100.00;101866.84;5116326;28;19919;-51
2023/10/15 07:57:39;;;;;;;;;;;;;;;6.83;100.00;101878.47;5115571;28;20014;-51
2023/10/15 08:00:06;;;;;;;;;;;;;;;6.85;100.00;101879.41;5116515;28;20377;-49
2023/10/15 08:02:31;;;;;;;;;;;;;;;6.87;100.00;101872.72;5115234;28;19916;-51
2023/10/15 08:04:57;;;;;;;;;;;;;;;6.92;100.00;101863.63;5115920;28;19942;-50
2023/10/15 08:07:22;;;;;;;;;;;;;;;6.96;100.00;101861.25;5115856;28;19963;-50
2023/10/15 08:09:50;;;;;;;;;;;;;;;6.99;100.00;101861.44;5115568;28;19962;-50
2023/10/15 08:12:15;;;;;;;;;;;;;;;6.99;100.00;101872.56;5116043;28;19973;-50
2023/10/15 08:14:41;;;;;;;;;;;;;;;7.06;100.00;101876.38;5116184;28;20399;-51
2023/10/15 08:17:07;;;;;;;;;;;;;;;7.14;100.00;101880.31;5115318;28;19912;-50
2023/10/15 08:19:32;;;;;;;;;;;;;;;7.13;100.00;101887.91;5115676;28;20278;-50
2023/10/15 08:21:59;;;;;;;;;;;;;;;7.07;100.00;101898.69;5116160;28;20389;-50
2023/10/15 08:24:25;;;;;;;;;;;;;;;7.00;100.00;101896.56;5115072;28;19945;-51
2023/10/15 08:26:50;;;;;;;;;;;;;;;6.98;100.00;101903.25;5115894;28;19988;-50
2023/10/15 08:29:15;;;;;;;;;;;;;;;7.06;100.00;101905.50;5115650;28;19994;-49
2023/10/15 08:31:40;;;;;;;;;;;;;;;7.24;100.00;101913.41;5115057;28;19970;-50
2023/10/15 08:34:05;;;;;;;;;;;;;;;7.31;100.00;101930.06;5115671;28;20362;-51
2023/10/15 08:36:32;;;;;;;;;;;;;;;7.34;100.00;101950.72;5115615;28;19915;-50
2023/10/15 08:38:57;;;;;;;;;;;;;;;7.32;100.00;101957.47;5114962;28;19918;-50
2023/10/15 08:41:24;;;;;;;;;;;;;;;7.27;100.00;101969.13;5115350;28;19916;-49
2023/10/15 08:43:51;;;;;;;;;;;;;;;7.21;100.00;101958.50;5115630;28;19937;-51
2023/10/15 08:46:18;;;;;;;;;;;;;;;7.15;100.00;101973.50;5114441;28;19957;-50
2023/10/15 08:48:44;;;;;;;;;;;;;;;7.09;100.00;101963.75;5115495;28;19916;-50
2023/10/15 08:51:10;;;;;;;;;;;;;;;7.06;100.00;101978.94;5115555;28;19919;-50
2023/10/15 08:53:36;;;;;;;;;;;;;;;7.01;100.00;101980.31;5114507;28;19911;-49
2023/10/15 08:56:01;;;;;;;;;;;;;;;6.94;100.00;101984.19;5115415;28;19916;-50
2023/10/15 08:58:27;;;;;;;;;;;;;;;6.87;100.00;101989.72;5114887;28;20367;-50
2023/10/15 09:00:56;;;;;;;;;;;;;;;6.82;100.00;101997.13;5114468;28;20006;-51
2023/10/15 09:03:23;;;;;;;;;;;;;;;6.80;100.00;101998.69;5114750;28;19970;-50
2023/10/15 09:05:52;;;;;;;;;;;;;;;6.71;100.00;102008.34;5115308;28;19915;-50
2023/10/15 09:08:17;;;;;;;;;;;;;;;6.66;100.00;102013.19;5113796;28;19912;-51
2023/10/15 09:10:42;;;;;;;;;;;;;;;6.66;100.00;102002.03;5114853;28;19911;-50
2023/10/15 09:13:14;;;;;;;;;;;;;;;6.69;100.00;102007.38;5114366;28;20386;-51
2023/10/15 09:15:43;;;;;;;;;;;;;;;6.72;100.00;102010.13;5115016;28;20377;-51
2023/10/15 09:18:11;;;;;;;;;;;;;;;6.80;100.00;102010.63;5114846;28;20289;-50
2023/10/15 09:20:39;;;;;;;;;;;;;;;6.92;100.00;102021.66;5114199;28;19957;-51
2023/10/15 09:23:04;;;;;;;;;;;;;;;7.00;100.00;102009.31;5114728;28;19919;-50
2023/10/15 09:25:30;;;;;;;;;;;;;;;7.02;100.00;102000.03;5114487;28;19916;-51
2023/10/15 09:27:56;;;;;;;;;;;;;;;7.01;100.00;102001.72;5113840;28;20286;-51
2023/10/15 09:30:22;;;;;;;;;;;;;;;7.19;100.00;101996.84;5114566;28;20395;-51
2023/10/15 09:32:47;;;;;;;;;;;;;;;7.69;100.00;101995.56;5114792;28;19965;-51
2023/10/15 09:35:13;;;;;;;;;;;;;;;8.31;100.00;102000.88;5113523;28;19911;-51
2023/10/15 09:37:39;;;;;;;;;;;;;;;9.01;100.00;102005.63;5114598;28;20294;-50
2023/10/15 09:40:09;;;;;;;;;;;;;;;9.45;100.00;102017.44;5114814;28;19911;-51
2023/10/15 09:42:35;;;;;;;;;;;;;;;9.58;100.00;102018.09;5113216;28;19966;-51
2023/10/15 09:45:02;;;;;;;;;;;;;;;9.42;100.00;102018.97;5114621;28;19950;-51
2023/10/15 09:47:27;;;;;;;;;;;;;;;9.20;100.00;102023.84;5114291;28;19920;-50
2023/10/15 09:49:53;;;;;;;;;;;;;;;9.15;100.00;102030.41;5113747;28;19916;-51
2023/10/15 09:52:18;;;;;;;;;;;;;;;9.13;100.00;102032.03;5113991;28;20355;-51
2023/10/15 09:54:45;;;;;;;;;;;;;;;9.13;100.00;102026.88;5114413;28;19994;-50
2023/10/15 09:57:12;;;;;;;;;;;;;;;9.06;100.00;102030.81;5113533;28;19919;-48
2023/10/15 09:59:37;;;;;;;;;;;;;;;8.90;100.00;102033.34;5114011;28;20271;-51
2023/10/15 10:02:06;;;;;;;;;;;;;;;8.81;100.00;102043.13;5114197;28;20385;-51
2023/10/15 10:04:52;;;;;;;;;;;;;;;8.80;100.00;102044.78;5113056;28;20448;-51
2023/10/15 10:07:36;;;;;;;;;;;;;;;8.86;100.00;102047.72;5113862;28;19919;-51
2023/10/15 10:10:26;;;;;;;;;;;;;;;8.94;100.00;102044.69;5113087;28;19915;-51
2023/10/15 10:13:02;;;;;;;;;;;;;;;9.01;100.00;102057.06;5114353;28;19923;-48
2023/10/15 10:15:33;;;;;;;;;;;;;;;9.19;100.00;102057.19;5113693;28;19912;-51
2023/10/15 10:17:59;;;;;;;;;;;;;;;9.41;100.00;102069.53;5113040;28;19977;-51
2023/10/15 10:20:31;;;;;;;;;;;;;;;9.36;100.00;102070.97;5112666;28;19912;-51
2023/10/15 10:22:58;;;;;;;;;;;;;;;9.26;100.00;102077.31;5113928;28;20010;-50
2023/10/15 10:25:30;;;;;;;;;;;;;;;9.13;100.00;102082.56;5112754;28;19918;-50
2023/10/15 10:28:06;;;;;;;;;;;;;;;9.02;100.00;102084.56;5113876;28;20267;-50
2023/10/15 10:30:32;;;;;;;;;;;;;;;9.02;100.00;102084.56;5112572;28;19916;-51
2023/10/15 10:32:58;;;;;;;;;;;;;;;8.98;100.00;102090.34;5113652;28;19953;-50
2023/10/15 10:35:26;;;;;;;;;;;;;;;9.05;100.00;102083.06;5113544;28;19954;-50
2023/10/15 10:38:05;;;;;;;;;;;;;;;9.44;100.00;102080.00;5113006;28;19915;-48
2023/10/15 10:40:50;;;;;;;;;;;;;;;10.06;100.00;102083.25;5113166;28;20275;-51
2023/10/15 10:43:19;;;;;;;;;;;;;;;10.85;100.00;102076.88;5113077;28;20026;-48
2023/10/15 10:45:54;;;;;;;;;;;;;;;11.44;100.00;102077.91;5112920;28;19911;-51
2023/10/15 10:48:22;;;;;;;;;;;;;;;12.14;100.00;102074.13;5113315;28;20363;-47
2023/10/15 10:50:48;;;;;;;;;;;;;;;12.85;100.00;102086.53;5113794;28;19912;-48
2023/10/15 10:53:14;;;;;;;;;;;;;;;12.98;100.00;102090.47;5112330;28;19912;-48
2023/10/15 10:55:39;;;;;;;;;;;;;;;12.92;100.00;102082.47;5113492;28;20389;-48
2023/10/15 10:58:07;;;;;;;;;;;;;;;12.62;100.00;102078.69;5113425;28;19923;-49
2023/10/15 11:00:33;;;;;;;;;;;;;;;12.23;100.00;102077.94;5112265;28;20382;-50
2023/10/15 11:03:00;;;;;;;;;;;;;;;11.92;100.00;102086.91;5113413;28;19911;-48
2023/10/15 11:05:26;;;;;;;;;;;;;;;11.77;100.00;102098.31;5113122;28;19912;-50
2023/10/15 11:07:52;;;;;;;;;;;;;;;11.65;100.00;102098.66;5112596;28;20371;-47
2023/10/15 11:10:17;;;;;;;;;;;;;;;11.51;100.00;102092.84;5113101;28;19908;-48
2023/10/15 11:12:44;;;;;;;;;;;;;;;11.41;100.00;102090.66;5112696;28;19938;-49
2023/10/15 11:15:10;;;;;;;;;;;;;;;11.71;100.00;102098.06;5113531;28;19908;-49
2023/10/15 11:17:35;;;;;;;;;;;;;;;12.41;100.00;102098.47;5113295;28;19918;-47
2023/10/15 11:20:01;;;;;;;;;;;;;;;13.10;100.00;102098.72;5112654;28;19912;-51
2023/10/15 11:22:26;;;;;;;;;;;;;;;13.41;100.00;102099.06;5112843;28;19912;-50
2023/10/15 11:24:51;;;;;;;;;;;;;;;13.73;100.00;102100.25;5113120;28;19976;-51
2023/10/15 11:27:19;;;;;;;;;;;;;;;13.90;93.22;102098.28;5112175;28;19955;-52
2023/10/15 11:29:44;;;;;;;;;;;;;;;13.91;98.06;102107.81;5113295;28;19907;-49
2023/10/15 11:32:11;;;;;;;;;;;;;;;13.67;94.48;102107.78;5114289;28;19912;-51
2023/10/15 11:34:39;;;;;;;;;;;;;;;13.39;89.98;102119.72;5116159;28;19907;-51
2023/10/15 11:37:06;;;;;;;;;;;;;;;13.21;94.97;102100.84;5116881;28;19912;-51
2023/10/15 11:39:38;;;;;;;;;;;;;;;13.48;97.09;102101.94;5116580;28;20401;-51
2023/10/15 11:42:09;;;;;;;;;;;;;;;13.59;86.53;102104.06;5116137;28;19919;-51
2023/10/15 11:44:41;;;;;;;;;;;;;;;13.46;90.23;102103.56;5116803;28;19912;-51
2023/10/15 11:47:11;;;;;;;;;;;;;;;13.75;92.42;102108.97;5116668;28;20286;-51
2023/10/15 11:49:42;;;;;;;;;;;;;;;14.05;93.35;102102.25;5115777;28;19937;-52
2023/10/15 11:52:11;;;;;;;;;;;;;;;14.30;89.43;102097.06;5116601;28;19911;-52
2023/10/15 11:54:43;;;;;;;;;;;;;;;14.41;90.57;102099.16;5116729;28;19912;-51
2023/10/15 11:57:15;;;;;;;;;;;;;;;14.43;85.23;102092.31;5116146;28;19976;-52
2023/10/15 11:59:40;;;;;;;;;;;;;;;13.95;81.25;102098.44;5116215;28;20429;-52
2023/10/15 12:02:10;;;;;;;;;;;;;;;13.22;82.23;102100.03;5115477;28;20030;-51
2023/10/15 12:04:36;;;;;;;;;;;;;;;12.60;89.90;102100.16;5116870;28;19934;-51
2023/10/15 12:07:02;;;;;;;;;;;;;;;12.19;91.75;102103.63;5116452;28;20374;-50
2023/10/15 12:09:27;;;;;;;;;;;;;;;12.14;94.63;102097.38;5115271;28;19916;-52
2023/10/15 12:11:52;;;;;;;;;;;;;;;12.41;95.59;102107.16;5116253;28;19918;-52
2023/10/15 12:14:17;;;;;;;;;;;;;;;12.95;93.13;102111.03;5115994;28;19912;-51
2023/10/15 12:16:44;;;;;;;;;;;;;;;13.01;90.71;102114.78;5115259;28;20003;-51
2023/10/15 12:19:09;;;;;;;;;;;;;;;12.75;88.20;102107.66;5115948;28;19922;-52
2023/10/15 12:21:38;;;;;;;;;;;;;;;12.30;88.70;102114.47;5115833;28;19911;-51
2023/10/15 12:24:04;;;;;;;;;;;;;;;11.99;94.68;102104.47;5115030;28;20366;-51
2023/10/15 12:26:29;;;;;;;;;;;;;;;11.99;93.36;102099.31;5115590;28;20355;-51
2023/10/15 12:28:54;;;;;;;;;;;;;;;12.10;96.17;102103.25;5116183;28;19945;-51
2023/10/15 12:31:30;;;;;;;;;;;;;;;12.22;94.98;102096.84;5114691;28;19919;-51
2023/10/15 12:33:56;;;;;;;;;;;;;;;12.59;92.99;102093.19;5115938;28;19964;-51
2023/10/15 12:36:21;;;;;;;;;;;;;;;13.09;94.23;102091.78;5115609;28;20006;-51
2023/10/15 12:38:47;;;;;;;;;;;;;;;13.83;93.87;102104.94;5115132;28;20020;-51
2023/10/15 12:41:13;;;;;;;;;;;;;;;14.26;84.56;102102.13;5115428;28;19915;-51
2023/10/15 12:43:40;;;;;;;;;;;;;;;14.46;85.31;102098.50;5114457;28;19957;-52
2023/10/15 12:46:05;;;;;;;;;;;;;;;14.73;90.67;102107.16;5114674;28;19938;-52
2023/10/15 12:48:30;;;;;;;;;;;;;;;14.67;87.44;102110.44;5115112;28;19915;-52